Time;durP1;ratioP1;P1;durP2;ratioP2;P2;SDS_P1;SDS_P2;PMS_P1;PMS_P2;Temp;Humidity;BMP_temperature;BMP_pressure;BME280_temperature;BME280_humidity;BME280_pressure;Samples;Min_cycle;Max_cycle;Signal;HPM_P1;HPM_P2
2021/11/08 00:02:25;;;;;;;;;;;6.80;99.90;;;;;;4984796;28;19949;-75
2021/11/08 00:04:52;;;;;;;;;;;6.80;99.90;;;;;;4986441;28;19930;-74
2021/11/08 00:07:19;;;;;;;;;;;6.80;99.90;;;;;;4983498;28;19929;-74
2021/11/08 00:09:46;;;;;;;;;;;6.90;99.90;;;;;;4981998;28;20349;-74
2021/11/08 00:12:12;;;;;;;;;;;6.80;99.90;;;;;;4973277;28;19934;-74
2021/11/08 00:14:41;;;;;;;;;;;6.80;99.90;;;;;;4975033;28;19926;-74
2021/11/08 00:17:16;;;;;;;;;;;6.80;99.90;;;;;;4985908;28;19926;-74
2021/11/08 00:20:03;;;;;;;;;;;6.80;99.90;;;;;;4981768;28;19940;-74
2021/11/08 00:22:30;;;;;;;;;;;6.70;99.90;;;;;;4992649;28;19933;-75
2021/11/08 00:24:57;;;;;;;;;;;6.70;99.90;;;;;;4979848;28;19960;-75
2021/11/08 00:27:23;;;;;;;;;;;6.70;99.90;;;;;;4983309;28;19977;-75
2021/11/08 00:29:51;;;;;;;;;;;6.80;99.90;;;;;;4983508;28;19934;-75
2021/11/08 00:32:18;;;;;;;;;;;6.80;99.90;;;;;;4981417;28;20455;-74
2021/11/08 00:34:46;;;;;;;;;;;6.80;99.90;;;;;;4978945;28;19926;-75
2021/11/08 00:37:13;;;;;;;;;;;6.80;99.90;;;;;;4977352;28;19970;-75
2021/11/08 00:39:40;;;;;;;;;;;6.80;99.90;;;;;;4973036;28;19930;-75
2021/11/08 00:42:07;;;;;;;;;;;6.90;99.90;;;;;;4984302;28;20014;-75
2021/11/08 00:44:34;;;;;;;;;;;6.90;99.90;;;;;;4975030;28;19933;-75
2021/11/08 00:47:02;;;;;;;;;;;6.90;99.90;;;;;;4978496;28;20004;-76
2021/11/08 00:49:29;;;;;;;;;;;6.90;99.90;;;;;;4983410;28;19927;-74
2021/11/08 00:51:58;;;;;;;;;;;6.90;99.90;;;;;;4985959;28;19932;-75
2021/11/08 00:54:25;;;;;;;;;;;6.90;99.90;;;;;;4978546;28;19930;-75
2021/11/08 00:56:56;;;;;;;;;;;6.90;99.90;;;;;;4980141;28;20296;-75
2021/11/08 00:59:23;;;;;;;;;;;6.90;99.90;;;;;;4977886;28;19997;-75
2021/11/08 01:01:53;;;;;;;;;;;6.80;99.90;;;;;;4976966;28;20450;-75
2021/11/08 01:04:22;;;;;;;;;;;6.80;99.90;;;;;;4981039;28;20620;-75
2021/11/08 01:06:49;;;;;;;;;;;6.80;99.90;;;;;;4977966;28;20292;-75
2021/11/08 01:09:17;;;;;;;;;;;6.70;99.90;;;;;;4970638;28;20053;-75
2021/11/08 01:11:44;;;;;;;;;;;6.80;99.90;;;;;;4978141;28;19926;-74
2021/11/08 01:14:11;;;;;;;;;;;6.70;99.90;;;;;;4974256;28;19927;-74
2021/11/08 01:16:38;;;;;;;;;;;6.70;99.90;;;;;;4974412;28;19930;-75
2021/11/08 01:19:06;;;;;;;;;;;6.70;99.90;;;;;;4976224;28;20382;-75
2021/11/08 01:21:33;;;;;;;;;;;6.70;99.90;;;;;;4978659;28;19927;-75
2021/11/08 01:24:01;;;;;;;;;;;6.70;99.90;;;;;;4974835;28;22574;-74
2021/11/08 01:26:29;;;;;;;;;;;6.70;99.90;;;;;;4978923;28;19932;-76
2021/11/08 01:28:56;;;;;;;;;;;6.60;99.90;;;;;;4977383;28;19932;-75
2021/11/08 01:31:23;;;;;;;;;;;6.60;99.90;;;;;;4981255;28;20300;-75
2021/11/08 01:33:51;;;;;;;;;;;6.70;99.90;;;;;;4975641;28;19930;-75
2021/11/08 01:36:22;;;;;;;;;;;6.60;99.90;;;;;;4976738;28;19930;-75
2021/11/08 01:38:50;;;;;;;;;;;6.60;99.90;;;;;;4979820;28;19926;-77
2021/11/08 01:41:18;;;;;;;;;;;6.50;99.90;;;;;;4981154;28;19952;-77
2021/11/08 01:43:47;;;;;;;;;;;6.50;99.90;;;;;;4979292;28;19930;-75
2021/11/08 01:46:14;;;;;;;;;;;6.50;99.90;;;;;;4976065;28;19941;-75
2021/11/08 01:48:41;;;;;;;;;;;6.40;99.90;;;;;;4972973;28;19948;-77
2021/11/08 01:51:08;;;;;;;;;;;6.40;99.90;;;;;;4975047;28;19930;-75
2021/11/08 01:53:35;;;;;;;;;;;6.40;99.90;;;;;;4981844;28;19926;-76
2021/11/08 01:56:02;;;;;;;;;;;6.30;99.90;;;;;;4980187;28;20291;-76
2021/11/08 01:58:30;;;;;;;;;;;6.30;99.90;;;;;;4975646;28;19927;-75
2021/11/08 02:00:58;;;;;;;;;;;6.20;99.90;;;;;;4980038;28;19932;-75
2021/11/08 02:03:25;;;;;;;;;;;6.20;99.90;;;;;;4979083;28;19934;-76
2021/11/08 02:05:53;;;;;;;;;;;6.10;99.90;;;;;;4979992;28;19934;-75
2021/11/08 02:08:21;;;;;;;;;;;6.10;99.90;;;;;;4976709;28;19948;-76
2021/11/08 02:10:48;;;;;;;;;;;6.20;99.90;;;;;;4977942;28;19976;-76
2021/11/08 02:13:15;;;;;;;;;;;6.20;99.90;;;;;;4982833;28;19934;-75
2021/11/08 02:15:42;;;;;;;;;;;6.20;99.90;;;;;;4973876;28;20001;-76
2021/11/08 02:18:12;;;;;;;;;;;6.30;99.90;;;;;;4983447;28;20305;-76
2021/11/08 02:20:42;;;;;;;;;;;6.40;99.90;;;;;;4985576;28;19980;-75
2021/11/08 02:23:10;;;;;;;;;;;6.40;99.90;;;;;;4977480;28;19926;-75
2021/11/08 02:25:38;;;;;;;;;;;6.40;99.90;;;;;;4977169;28;19945;-75
2021/11/08 02:28:06;;;;;;;;;;;6.40;99.90;;;;;;4979126;28;19934;-75
2021/11/08 02:30:35;;;;;;;;;;;6.40;99.90;;;;;;4974703;28;19926;-75
2021/11/08 02:33:02;;;;;;;;;;;6.40;99.90;;;;;;4972225;28;20032;-75
2021/11/08 02:35:29;;;;;;;;;;;6.30;99.90;;;;;;4977272;28;19930;-76
2021/11/08 02:37:57;;;;;;;;;;;6.30;99.90;;;;;;4982034;28;19926;-75
2021/11/08 02:40:26;;;;;;;;;;;6.30;99.90;;;;;;4974547;28;19930;-75
2021/11/08 02:42:54;;;;;;;;;;;6.30;99.90;;;;;;4973491;28;19972;-75
2021/11/08 02:45:22;;;;;;;;;;;6.30;99.90;;;;;;4975170;28;19933;-75
2021/11/08 02:47:49;;;;;;;;;;;6.30;99.90;;;;;;4975496;28;20399;-75
2021/11/08 02:50:17;;;;;;;;;;;6.40;99.90;;;;;;4977400;28;19932;-76
2021/11/08 02:52:44;;;;;;;;;;;6.40;99.90;;;;;;4974369;28;19927;-75
2021/11/08 02:55:13;;;;;;;;;;;6.40;99.90;;;;;;4973123;28;19929;-75
2021/11/08 02:57:40;;;;;;;;;;;6.50;99.90;;;;;;4974101;28;19926;-75
2021/11/08 03:00:09;;;;;;;;;;;6.50;99.90;;;;;;4976296;28;19937;-76
2021/11/08 03:02:38;;;;;;;;;;;6.60;99.90;;;;;;4973565;28;19932;-75
2021/11/08 03:05:05;;;;;;;;;;;6.60;99.90;;;;;;4978210;28;19948;-75
2021/11/08 03:07:36;;;;;;;;;;;6.60;99.90;;;;;;4974987;28;19926;-75
2021/11/08 03:10:05;;;;;;;;;;;6.70;99.90;;;;;;4972877;28;19987;-75
2021/11/08 03:12:36;;;;;;;;;;;6.70;99.90;;;;;;4972215;28;19933;-75
2021/11/08 03:15:07;;;;;;;;;;;6.70;99.90;;;;;;4978324;28;19934;-76
2021/11/08 03:17:37;;;;;;;;;;;6.70;99.90;;;;;;4976372;28;19926;-75
2021/11/08 03:20:09;;;;;;;;;;;6.70;99.90;;;;;;4978787;28;20327;-76
2021/11/08 03:22:35;;;;;;;;;;;6.70;99.90;;;;;;4987801;28;20298;-75
2021/11/08 03:25:07;;;;;;;;;;;6.60;99.90;;;;;;4984786;28;20494;-74
2021/11/08 03:27:47;;;;;;;;;;;6.60;99.90;;;;;;4985590;28;19969;-76
2021/11/08 03:30:16;;;;;;;;;;;6.50;99.90;;;;;;4976550;28;19941;-75
2021/11/08 03:32:43;;;;;;;;;;;6.50;99.90;;;;;;4978415;28;20462;-75
2021/11/08 03:35:12;;;;;;;;;;;6.50;99.90;;;;;;4972809;28;19926;-75
2021/11/08 03:37:42;;;;;;;;;;;6.40;99.90;;;;;;4977362;28;20388;-75
2021/11/08 03:40:10;;;;;;;;;;;6.40;99.90;;;;;;4976871;28;19957;-76
2021/11/08 03:42:38;;;;;;;;;;;6.30;99.90;;;;;;4983151;28;20296;-77
2021/11/08 03:45:05;;;;;;;;;;;6.30;99.90;;;;;;4980300;28;20029;-76
2021/11/08 03:47:32;;;;;;;;;;;6.30;99.90;;;;;;4978802;28;19926;-76
2021/11/08 03:49:59;;;;;;;;;;;6.20;99.90;;;;;;4980489;28;19930;-75
2021/11/08 03:52:25;;;;;;;;;;;6.20;99.90;;;;;;4987368;28;19926;-75
2021/11/08 03:54:52;;;;;;;;;;;6.20;99.90;;;;;;4983315;28;19926;-75
2021/11/08 03:57:19;;;;;;;;;;;6.20;99.90;;;;;;4983459;28;20013;-75
2021/11/08 03:59:47;;;;;;;;;;;6.10;99.90;;;;;;4983120;28;19930;-76
2021/11/08 04:02:15;;;;;;;;;;;6.10;99.90;;;;;;4989324;28;20523;-75
2021/11/08 04:04:42;;;;;;;;;;;6.10;99.90;;;;;;4989079;28;20400;-75
2021/11/08 04:07:09;;;;;;;;;;;6.00;99.90;;;;;;4980927;28;19981;-75
2021/11/08 04:09:36;;;;;;;;;;;6.00;99.90;;;;;;4986535;28;19995;-75
2021/11/08 04:12:04;;;;;;;;;;;6.00;99.90;;;;;;4977563;28;19992;-75
2021/11/08 04:14:30;;;;;;;;;;;5.90;99.90;;;;;;4980405;28;19940;-75
2021/11/08 04:16:58;;;;;;;;;;;5.90;99.90;;;;;;4978590;28;19940;-75
2021/11/08 04:19:29;;;;;;;;;;;6.00;99.90;;;;;;4975069;28;20327;-75
2021/11/08 04:21:57;;;;;;;;;;;5.90;99.90;;;;;;4982524;28;19926;-76
2021/11/08 04:24:24;;;;;;;;;;;5.90;99.90;;;;;;4981096;28;19926;-75
2021/11/08 04:26:51;;;;;;;;;;;5.90;99.90;;;;;;4980652;28;19926;-75
2021/11/08 04:29:18;;;;;;;;;;;5.90;99.90;;;;;;4980476;28;21616;-75
2021/11/08 04:31:45;;;;;;;;;;;5.80;99.90;;;;;;4983549;28;20395;-75
2021/11/08 04:34:20;;;;;;;;;;;5.80;99.90;;;;;;4979477;28;19934;-76
2021/11/08 04:39:38;;;;;;;;;;;5.80;99.90;;;;;;4974768;28;20024;-75
2021/11/08 04:42:08;;;;;;;;;;;5.80;99.90;;;;;;4973630;28;19970;-75
2021/11/08 04:47:50;;;;;;;;;;;5.90;99.90;;;;;;4979862;28;19969;-76
2021/11/08 04:50:26;;;;;;;;;;;5.80;99.90;;;;;;4979267;28;19934;-76
2021/11/08 04:53:05;;;;;;;;;;;5.80;99.90;;;;;;4983433;28;19933;-75
2021/11/08 04:55:47;;;;;;;;;;;5.80;99.90;;;;;;4979123;28;19980;-75
2021/11/08 04:58:44;;;;;;;;;;;5.80;99.90;;;;;;4989449;28;19933;-75
2021/11/08 05:23:48;;;;;;;;;;;5.50;99.90;;;;;;4970681;28;19933;-75
2021/11/08 05:31:48;;;;;;;;;;;5.30;99.90;;;;;;4961688;28;19925;-77
2021/11/08 05:34:15;;;;;;;;;;;5.30;99.90;;;;;;4976901;28;19933;-75
2021/11/08 05:36:42;;;;;;;;;;;5.30;99.90;;;;;;4975714;28;19980;-76
2021/11/08 05:39:10;;;;;;;;;;;5.30;99.90;;;;;;4986825;28;19933;-77
2021/11/08 05:41:37;;;;;;;;;;;5.30;99.90;;;;;;4987744;28;19948;-76
2021/11/08 05:44:04;;;;;;;;;;;5.20;99.90;;;;;;4974994;28;20399;-77
2021/11/08 05:46:31;;;;;;;;;;;5.30;99.90;;;;;;4978721;28;19980;-77
2021/11/08 05:48:58;;;;;;;;;;;5.20;99.90;;;;;;4980625;28;19925;-77
2021/11/08 05:51:25;;;;;;;;;;;5.10;99.90;;;;;;4976384;28;19933;-76
2021/11/08 05:53:52;;;;;;;;;;;5.10;99.90;;;;;;4981745;28;19948;-77
2021/11/08 05:56:26;;;;;;;;;;;5.00;99.90;;;;;;4971742;28;19934;-76
2021/11/08 06:51:23;;;;;;;;;;;4.60;99.90;;;;;;4982218;28;20016;-75
2021/11/08 06:53:54;;;;;;;;;;;4.60;99.90;;;;;;4971443;28;20011;-76
2021/11/08 06:56:26;;;;;;;;;;;4.70;99.90;;;;;;4964857;28;19934;-75
2021/11/08 06:58:52;;;;;;;;;;;4.60;99.90;;;;;;4965882;28;19958;-75
2021/11/08 07:01:22;;;;;;;;;;;4.60;99.90;;;;;;4963693;28;19929;-75
2021/11/08 07:03:48;;;;;;;;;;;4.70;99.90;;;;;;4961651;28;19933;-74
2021/11/08 07:06:15;;;;;;;;;;;4.70;99.90;;;;;;4963020;28;19933;-74
2021/11/08 07:08:42;;;;;;;;;;;4.70;99.90;;;;;;4979980;28;19926;-74
2021/11/08 07:11:08;;;;;;;;;;;4.70;99.90;;;;;;4976529;28;19925;-76
2021/11/08 07:13:35;;;;;;;;;;;4.80;99.90;;;;;;4966695;28;20067;-76
2021/11/08 07:16:02;;;;;;;;;;;4.80;99.90;;;;;;4973224;28;20042;-75
2021/11/08 07:18:30;;;;;;;;;;;4.90;99.90;;;;;;4975512;28;19934;-76
2021/11/08 07:20:56;;;;;;;;;;;5.00;99.90;;;;;;4972478;28;20373;-76
2021/11/08 07:23:23;;;;;;;;;;;5.10;99.90;;;;;;4987533;28;20336;-76
2021/11/08 07:25:50;;;;;;;;;;;5.20;99.90;;;;;;4981826;28;19926;-75
2021/11/08 07:28:16;;;;;;;;;;;5.30;99.90;;;;;;4977242;28;19930;-76
2021/11/08 07:30:46;;;;;;;;;;;5.20;99.90;;;;;;4979686;28;19926;-75
2021/11/08 07:33:12;;;;;;;;;;;5.30;99.90;;;;;;4973678;28;19948;-76
2021/11/08 07:35:40;;;;;;;;;;;5.40;99.90;;;;;;4974437;28;19942;-76
2021/11/08 07:38:07;;;;;;;;;;;5.40;99.90;;;;;;4980019;28;19968;-78
2021/11/08 07:40:34;;;;;;;;;;;5.50;99.90;;;;;;4979078;28;20016;-77
2021/11/08 07:43:00;;;;;;;;;;;5.60;99.90;;;;;;4978155;28;19926;-76
2021/11/08 07:45:27;;;;;;;;;;;5.60;99.90;;;;;;4978138;28;19926;-74
2021/11/08 07:47:54;;;;;;;;;;;5.60;99.90;;;;;;4978568;28;20293;-76
2021/11/08 07:50:21;;;;;;;;;;;5.60;99.90;;;;;;4979107;28;19995;-76
2021/11/08 07:52:49;;;;;;;;;;;5.60;99.90;;;;;;4979164;28;20048;-76
2021/11/08 07:55:16;;;;;;;;;;;5.70;99.90;;;;;;4975772;28;19926;-76
2021/11/08 07:57:42;;;;;;;;;;;5.90;99.90;;;;;;4984710;28;19948;-75
2021/11/08 08:00:09;;;;;;;;;;;6.00;99.90;;;;;;4986946;28;19988;-77
2021/11/08 08:02:36;;;;;;;;;;;6.10;99.90;;;;;;4978189;28;19926;-76
2021/11/08 08:05:03;;;;;;;;;;;7.30;99.90;;;;;;4990097;28;20028;-76
2021/11/08 08:07:30;;;;;;;;;;;8.50;99.90;;;;;;4984007;28;19956;-75
2021/11/08 08:09:58;;;;;;;;;;;8.60;99.90;;;;;;4974637;28;20494;-76
2021/11/08 08:12:25;;;;;;;;;;;8.60;99.90;;;;;;4974008;28;20388;-77
2021/11/08 08:14:52;;;;;;;;;;;9.50;99.90;;;;;;4979879;28;19965;-75
2021/11/08 08:17:19;;;;;;;;;;;9.90;99.90;;;;;;4972648;28;19926;-75
2021/11/08 08:19:46;;;;;;;;;;;10.00;99.90;;;;;;4977369;28;19926;-75
2021/11/08 08:22:13;;;;;;;;;;;10.50;99.90;;;;;;4979011;28;20013;-76
2021/11/08 08:24:39;;;;;;;;;;;10.60;99.90;;;;;;4986668;28;19934;-77
2021/11/08 08:27:07;;;;;;;;;;;10.90;99.90;;;;;;4977718;28;19936;-75
2021/11/08 08:29:34;;;;;;;;;;;11.00;99.90;;;;;;4981747;28;19948;-74
2021/11/08 08:32:01;;;;;;;;;;;10.90;99.90;;;;;;4970370;28;19933;-75
2021/11/08 08:34:29;;;;;;;;;;;10.90;99.90;;;;;;4979035;28;20016;-75
2021/11/08 08:36:57;;;;;;;;;;;10.70;99.90;;;;;;4979228;28;19949;-76
2021/11/08 08:39:23;;;;;;;;;;;10.50;99.90;;;;;;4979035;28;19934;-74
2021/11/08 08:41:50;;;;;;;;;;;10.50;99.90;;;;;;4974549;28;19953;-75
2021/11/08 08:44:18;;;;;;;;;;;9.60;99.90;;;;;;4974250;28;19934;-74
2021/11/08 08:46:46;;;;;;;;;;;9.30;99.90;;;;;;4974810;28;19949;-75
2021/11/08 08:49:13;;;;;;;;;;;9.20;99.90;;;;;;4978519;28;20371;-74
2021/11/08 08:51:41;;;;;;;;;;;9.20;99.90;;;;;;4977394;28;20016;-74
2021/11/08 08:54:08;;;;;;;;;;;9.30;99.90;;;;;;4974853;28;20025;-78
2021/11/08 08:56:36;;;;;;;;;;;9.60;99.90;;;;;;4978057;28;19969;-78
2021/11/08 08:59:04;;;;;;;;;;;9.80;99.90;;;;;;4977533;28;19938;-73
2021/11/08 09:01:33;;;;;;;;;;;9.70;99.90;;;;;;4982676;28;19933;-77
2021/11/08 09:04:00;;;;;;;;;;;9.70;99.90;;;;;;4985907;28;19932;-76
2021/11/08 09:06:28;;;;;;;;;;;9.70;99.90;;;;;;4970054;28;19926;-76
2021/11/08 09:08:55;;;;;;;;;;;9.50;99.90;;;;;;4980348;28;19936;-74
2021/11/08 09:11:22;;;;;;;;;;;9.40;99.90;;;;;;4976377;28;19934;-75
2021/11/08 09:13:49;;;;;;;;;;;9.30;99.90;;;;;;4973648;28;19934;-72
2021/11/08 09:16:16;;;;;;;;;;;8.90;99.90;;;;;;4982552;28;19934;-75
2021/11/08 09:18:46;;;;;;;;;;;8.70;99.90;;;;;;4976859;28;19926;-74
2021/11/08 09:21:13;;;;;;;;;;;8.70;99.90;;;;;;4974648;28;19932;-71
2021/11/08 09:23:40;;;;;;;;;;;8.60;99.90;;;;;;4972449;28;20285;-76
2021/11/08 09:26:07;;;;;;;;;;;8.70;99.90;;;;;;4982460;28;20408;-75
2021/11/08 09:28:34;;;;;;;;;;;8.70;99.90;;;;;;4981883;28;19932;-76
2021/11/08 09:31:01;;;;;;;;;;;8.80;99.90;;;;;;4970049;28;19934;-75
2021/11/08 09:33:28;;;;;;;;;;;9.00;99.90;;;;;;4975126;28;19932;-75
2021/11/08 09:36:02;;;;;;;;;;;9.10;99.90;;;;;;4970661;28;19933;-75
2021/11/08 09:38:28;;;;;;;;;;;9.30;99.90;;;;;;4979837;28;20420;-76
2021/11/08 09:40:55;;;;;;;;;;;9.30;99.90;;;;;;4972402;28;19926;-76
2021/11/08 09:43:23;;;;;;;;;;;9.40;99.90;;;;;;4974939;28;19930;-77
2021/11/08 09:45:50;;;;;;;;;;;9.40;99.90;;;;;;4976027;28;19926;-80
2021/11/08 09:48:18;;;;;;;;;;;9.40;99.90;;;;;;4972527;28;19971;-80
2021/11/08 09:50:46;;;;;;;;;;;9.50;99.90;;;;;;4968410;28;19945;-78
2021/11/08 09:53:15;;;;;;;;;;;9.50;99.90;;;;;;4968561;28;20658;-74
2021/11/08 09:55:44;;;;;;;;;;;9.60;99.90;;;;;;4972862;28;19936;-75
2021/11/08 09:58:11;;;;;;;;;;;9.60;99.90;;;;;;4973030;28;20013;-75
2021/11/08 10:00:50;;;;;;;;;;;9.60;99.90;;;;;;4964775;28;19929;-75
2021/11/08 10:03:19;;;;;;;;;;;9.70;99.90;;;;;;4972726;28;19948;-77
2021/11/08 10:05:47;;;;;;;;;;;9.80;99.90;;;;;;4970308;28;19937;-76
2021/11/08 10:08:16;;;;;;;;;;;9.70;99.90;;;;;;4971254;28;19932;-77
2021/11/08 10:10:43;;;;;;;;;;;9.70;99.90;;;;;;4966613;28;19936;-76
2021/11/08 10:13:11;;;;;;;;;;;9.70;99.90;;;;;;4968240;28;19934;-77
2021/11/08 10:15:38;;;;;;;;;;;9.80;99.90;;;;;;4977751;28;20020;-75
2021/11/08 10:18:05;;;;;;;;;;;9.80;99.90;;;;;;4973050;28;19944;-76
2021/11/08 10:20:32;;;;;;;;;;;9.80;99.90;;;;;;4974738;28;19926;-77
2021/11/08 10:22:59;;;;;;;;;;;9.90;99.90;;;;;;4971650;28;19997;-76
2021/11/08 10:25:28;;;;;;;;;;;9.90;99.90;;;;;;4980801;28;19930;-79
2021/11/08 10:27:55;;;;;;;;;;;10.00;99.90;;;;;;4971516;28;19926;-79
2021/11/08 10:30:23;;;;;;;;;;;10.10;99.90;;;;;;4967294;28;20476;-80
2021/11/08 10:33:04;;;;;;;;;;;10.20;99.90;;;;;;4977967;28;20043;-77
2021/11/08 10:35:34;;;;;;;;;;;10.20;99.90;;;;;;4970864;28;20017;-74
2021/11/08 10:38:04;;;;;;;;;;;10.30;99.90;;;;;;4978231;28;20024;-74
2021/11/08 10:40:40;;;;;;;;;;;10.30;99.90;;;;;;4976587;28;20053;-77
2021/11/08 10:43:06;;;;;;;;;;;10.50;99.90;;;;;;4973362;28;19930;-75
2021/11/08 10:45:33;;;;;;;;;;;10.60;99.90;;;;;;4975196;28;19936;-73
2021/11/08 10:48:00;;;;;;;;;;;10.70;99.90;;;;;;4983075;28;20057;-75
2021/11/08 10:50:27;;;;;;;;;;;10.80;99.90;;;;;;4982319;28;19926;-76
2021/11/08 10:53:01;;;;;;;;;;;10.90;99.90;;;;;;4984755;28;19973;-79
2021/11/08 10:55:31;;;;;;;;;;;10.80;99.90;;;;;;4984053;28;19927;-75
2021/11/08 10:58:08;;;;;;;;;;;10.70;99.90;;;;;;4987799;28;19933;-75
2021/11/08 11:00:45;;;;;;;;;;;10.60;99.90;;;;;;4980157;28;19932;-75
2021/11/08 11:03:16;;;;;;;;;;;10.60;99.90;;;;;;4980850;28;19925;-76
2021/11/08 11:05:43;;;;;;;;;;;10.60;99.90;;;;;;4979178;28;19926;-76
2021/11/08 11:08:14;;;;;;;;;;;10.70;99.90;;;;;;4981492;28;19933;-78
2021/11/08 11:10:42;;;;;;;;;;;10.70;99.90;;;;;;4980076;28;19933;-80
2021/11/08 11:13:16;;;;;;;;;;;10.80;99.90;;;;;;4979419;28;19949;-76
2021/11/08 11:15:43;;;;;;;;;;;10.90;99.90;;;;;;4971878;28;19952;-78
2021/11/08 11:18:11;;;;;;;;;;;11.00;99.90;;;;;;4975172;28;19938;-77
2021/11/08 11:20:40;;;;;;;;;;;11.00;99.90;;;;;;4979582;28;19944;-77
2021/11/08 11:23:10;;;;;;;;;;;11.00;99.90;;;;;;4980665;28;19926;-77
2021/11/08 11:25:37;;;;;;;;;;;11.10;99.90;;;;;;4977324;28;19933;-76
2021/11/08 11:28:05;;;;;;;;;;;11.10;99.90;;;;;;4975193;28;19933;-76
2021/11/08 11:30:35;;;;;;;;;;;11.10;99.90;;;;;;4968108;28;19976;-75
2021/11/08 11:33:02;;;;;;;;;;;11.00;99.90;;;;;;4964575;28;19938;-76
2021/11/08 11:35:30;;;;;;;;;;;11.00;99.90;;;;;;4971942;28;19934;-76
2021/11/08 11:38:01;;;;;;;;;;;11.00;99.90;;;;;;4978357;28;19934;-76
2021/11/08 11:40:28;;;;;;;;;;;11.10;99.90;;;;;;4975123;28;20331;-80
2021/11/08 11:42:56;;;;;;;;;;;11.20;99.90;;;;;;4975033;28;19932;-78
2021/11/08 11:45:26;;;;;;;;;;;11.30;99.90;;;;;;4976062;28;19997;-77
2021/11/08 11:47:59;;;;;;;;;;;11.30;99.90;;;;;;4974074;28;20623;-77
2021/11/08 11:50:27;;;;;;;;;;;11.30;99.90;;;;;;4974813;28;19937;-78
2021/11/08 11:52:54;;;;;;;;;;;11.30;99.90;;;;;;4972448;28;19927;-79
2021/11/08 11:55:20;;;;;;;;;;;11.30;99.90;;;;;;4974715;28;19944;-76
2021/11/08 11:57:48;;;;;;;;;;;11.40;99.90;;;;;;4973241;28;20415;-80
2021/11/08 12:00:15;;;;;;;;;;;11.50;99.90;;;;;;4974605;28;20396;-81
2021/11/08 12:02:42;;;;;;;;;;;11.50;99.90;;;;;;4976305;28;19932;-79
2021/11/08 12:05:10;;;;;;;;;;;11.50;99.90;;;;;;4980051;28;19937;-81
2021/11/08 12:07:37;;;;;;;;;;;11.60;99.90;;;;;;4981820;28;19932;-80
2021/11/08 12:10:05;;;;;;;;;;;11.70;99.90;;;;;;4972166;28;20406;-80
2021/11/08 12:12:32;;;;;;;;;;;11.80;99.90;;;;;;4978946;28;19929;-85
2021/11/08 12:15:05;;;;;;;;;;;11.80;98.80;;;;;;4969216;28;20380;-78
2021/11/08 12:17:35;;;;;;;;;;;11.70;98.40;;;;;;4975916;28;20024;-84
2021/11/08 12:20:04;;;;;;;;;;;11.80;98.20;;;;;;4974262;28;19977;-79
2021/11/08 12:22:32;;;;;;;;;;;11.90;97.80;;;;;;4979721;28;19933;-80
2021/11/08 12:24:59;;;;;;;;;;;11.70;96.70;;;;;;4979710;28;19932;-78
2021/11/08 12:27:33;;;;;;;;;;;11.60;96.60;;;;;;4973917;28;20016;-78
2021/11/08 12:30:00;;;;;;;;;;;11.50;97.30;;;;;;4967012;28;19934;-76
2021/11/08 12:32:27;;;;;;;;;;;11.80;97.50;;;;;;4979441;28;19926;-78
2021/11/08 12:34:58;;;;;;;;;;;12.00;96.80;;;;;;4974212;28;20429;-80
2021/11/08 12:37:35;;;;;;;;;;;12.10;96.30;;;;;;4974913;28;19933;-77
2021/11/08 12:40:04;;;;;;;;;;;12.20;96.20;;;;;;4977370;28;19941;-80
2021/11/08 12:42:37;;;;;;;;;;;12.40;95.10;;;;;;4981119;28;19934;-79
2021/11/08 12:45:08;;;;;;;;;;;12.40;94.40;;;;;;4973566;28;20050;-76
2021/11/08 12:47:35;;;;;;;;;;;12.30;93.40;;;;;;4969841;28;20398;-77
2021/11/08 12:50:02;;;;;;;;;;;12.10;93.20;;;;;;4969591;28;20401;-76
2021/11/08 12:52:31;;;;;;;;;;;12.00;92.50;;;;;;4973680;28;20036;-76
2021/11/08 12:55:06;;;;;;;;;;;12.10;92.50;;;;;;4967079;28;19971;-78
2021/11/08 12:57:33;;;;;;;;;;;12.30;92.20;;;;;;4972326;28;20419;-77
2021/11/08 13:00:01;;;;;;;;;;;12.50;92.10;;;;;;5004754;28;20279;-80
2021/11/08 13:02:31;;;;;;;;;;;12.70;91.50;;;;;;4973018;28;19984;-81
2021/11/08 13:04:59;;;;;;;;;;;12.80;91.20;;;;;;4971365;28;19926;-81
2021/11/08 13:07:29;;;;;;;;;;;12.90;90.20;;;;;;4974824;28;20655;-73
2021/11/08 13:09:57;;;;;;;;;;;12.90;90.10;;;;;;4964696;28;19930;-74
2021/11/08 13:12:31;;;;;;;;;;;12.90;90.00;;;;;;4980815;28;20020;-78
2021/11/08 13:15:02;;;;;;;;;;;12.80;90.00;;;;;;4967427;28;19933;-76
2021/11/08 13:17:30;;;;;;;;;;;12.50;90.20;;;;;;4971530;28;19941;-79
2021/11/08 13:20:00;;;;;;;;;;;12.50;90.00;;;;;;4973232;28;20258;-77
2021/11/08 13:22:28;;;;;;;;;;;12.50;90.10;;;;;;4979272;28;19926;-74
2021/11/08 13:25:12;;;;;;;;;;;12.50;90.20;;;;;;4972609;28;19926;-72
2021/11/08 13:27:45;;;;;;;;;;;12.50;89.70;;;;;;4974263;28;19961;-75
2021/11/08 13:30:12;;;;;;;;;;;12.60;90.10;;;;;;4968888;28;19941;-77
2021/11/08 13:32:39;;;;;;;;;;;12.50;88.40;;;;;;4971064;28;19926;-75
2021/11/08 13:35:07;;;;;;;;;;;12.40;88.70;;;;;;4969280;28;19926;-75
2021/11/08 13:37:37;;;;;;;;;;;12.50;87.90;;;;;;4979416;28;19938;-75
2021/11/08 13:40:18;;;;;;;;;;;12.50;87.20;;;;;;4978358;28;19926;-78
2021/11/08 13:42:47;;;;;;;;;;;12.40;86.70;;;;;;4973542;28;19930;-77
2021/11/08 13:45:14;;;;;;;;;;;12.40;84.90;;;;;;4973282;28;19940;-76
2021/11/08 13:47:42;;;;;;;;;;;12.20;85.50;;;;;;4980221;28;19934;-77
2021/11/08 13:50:09;;;;;;;;;;;12.20;86.80;;;;;;4979501;28;20340;-79
2021/11/08 13:52:36;;;;;;;;;;;12.20;88.20;;;;;;4971686;28;19927;-80
2021/11/08 13:55:07;;;;;;;;;;;12.20;89.40;;;;;;4968792;28;19933;-77
2021/11/08 13:57:33;;;;;;;;;;;12.20;90.20;;;;;;4971151;28;19933;-78
2021/11/08 14:00:02;;;;;;;;;;;12.30;90.40;;;;;;4980487;28;19926;-78
2021/11/08 14:02:29;;;;;;;;;;;12.20;90.20;;;;;;4970206;28;19937;-76
2021/11/08 14:04:59;;;;;;;;;;;12.00;90.30;;;;;;4971024;28;19973;-76
2021/11/08 14:07:26;;;;;;;;;;;11.90;90.80;;;;;;4972664;28;19937;-76
2021/11/08 14:09:53;;;;;;;;;;;11.70;91.10;;;;;;4972079;28;19927;-78
2021/11/08 14:12:21;;;;;;;;;;;11.50;91.30;;;;;;4973329;28;19937;-77
2021/11/08 14:14:49;;;;;;;;;;;11.40;91.80;;;;;;4970099;28;19949;-72
2021/11/08 14:17:18;;;;;;;;;;;11.30;92.00;;;;;;4972193;28;19969;-71
2021/11/08 14:19:46;;;;;;;;;;;11.20;92.30;;;;;;4970149;28;20391;-71
2021/11/08 14:22:13;;;;;;;;;;;11.10;92.50;;;;;;4974668;28;20396;-71
2021/11/08 14:24:40;;;;;;;;;;;11.10;93.20;;;;;;4977364;28;19944;-76
2021/11/08 14:27:12;;;;;;;;;;;11.10;93.40;;;;;;4976906;28;20604;-76
2021/11/08 14:29:39;;;;;;;;;;;11.00;93.60;;;;;;4975357;28;19949;-78
2021/11/08 14:32:07;;;;;;;;;;;11.00;93.80;;;;;;5046972;28;20424;-77
2021/11/08 14:34:39;;;;;;;;;;;11.10;93.90;;;;;;4975028;28;20024;-76
2021/11/08 14:37:09;;;;;;;;;;;11.10;93.70;;;;;;4973169;28;19930;-77
2021/11/08 14:39:40;;;;;;;;;;;11.20;93.70;;;;;;4975545;28;19927;-75
2021/11/08 14:42:11;;;;;;;;;;;11.30;93.30;;;;;;4960117;28;20879;-76
2021/11/08 14:44:39;;;;;;;;;;;11.40;93.30;;;;;;4949536;28;19930;-76
2021/11/08 14:47:15;;;;;;;;;;;11.50;93.40;;;;;;4978231;28;20883;-76
2021/11/08 14:49:52;;;;;;;;;;;11.50;93.40;;;;;;4975102;28;20004;-76
2021/11/08 14:52:19;;;;;;;;;;;11.50;93.30;;;;;;4976608;28;19926;-76
2021/11/08 14:54:51;;;;;;;;;;;11.50;93.00;;;;;;4972988;28;19930;-74
2021/11/08 14:57:19;;;;;;;;;;;11.50;92.80;;;;;;4977993;28;19926;-77
2021/11/08 14:59:52;;;;;;;;;;;11.50;92.40;;;;;;4975998;28;19983;-76
2021/11/08 15:02:19;;;;;;;;;;;11.50;92.30;;;;;;4973843;28;20404;-75
2021/11/08 15:04:48;;;;;;;;;;;11.50;92.50;;;;;;4969889;28;20380;-76
2021/11/08 15:07:15;;;;;;;;;;;11.40;92.40;;;;;;4977448;28;20265;-75
2021/11/08 15:09:43;;;;;;;;;;;11.30;92.40;;;;;;4969442;28;19937;-76
2021/11/08 15:12:14;;;;;;;;;;;11.20;92.80;;;;;;4963337;28;19930;-78
2021/11/08 15:14:45;;;;;;;;;;;11.10;93.30;;;;;;4958846;28;19934;-77
2021/11/08 15:17:12;;;;;;;;;;;11.10;93.60;;;;;;4959234;28;19926;-76
2021/11/08 15:19:44;;;;;;;;;;;11.10;93.70;;;;;;4968851;28;19934;-76
2021/11/08 15:22:12;;;;;;;;;;;11.10;93.60;;;;;;4960516;28;19930;-79
2021/11/08 15:24:40;;;;;;;;;;;11.00;93.80;;;;;;4959621;28;19962;-77
2021/11/08 15:27:07;;;;;;;;;;;11.00;94.20;;;;;;4960344;28;19930;-77
2021/11/08 15:29:36;;;;;;;;;;;11.00;94.20;;;;;;4963131;28;19930;-76
2021/11/08 15:32:11;;;;;;;;;;;10.90;94.40;;;;;;4962734;28;20379;-76
2021/11/08 15:34:38;;;;;;;;;;;11.00;94.50;;;;;;4962186;28;20017;-78
2021/11/08 15:37:06;;;;;;;;;;;11.00;94.40;;;;;;4962611;28;19936;-76
2021/11/08 15:39:35;;;;;;;;;;;11.00;93.90;;;;;;4961993;28;20358;-77
2021/11/08 15:42:03;;;;;;;;;;;10.90;93.60;;;;;;4964335;28;20033;-77
2021/11/08 15:44:30;;;;;;;;;;;10.90;93.50;;;;;;4966360;28;19929;-76
2021/11/08 15:46:57;;;;;;;;;;;10.90;93.70;;;;;;4963569;28;19926;-79
2021/11/08 15:49:24;;;;;;;;;;;10.80;93.70;;;;;;4973582;28;19973;-79
2021/11/08 15:51:51;;;;;;;;;;;10.80;93.60;;;;;;4973124;28;19926;-80
2021/11/08 15:54:22;;;;;;;;;;;10.70;93.80;;;;;;5102826;22;19942;-80
2021/11/08 15:56:51;;;;;;;;;;;10.70;94.00;;;;;;5100701;28;19967;-78
2021/11/08 15:59:18;;;;;;;;;;;10.70;93.90;;;;;;5100862;28;19930;-77